createdAt,value
2023-04-28T00:20:41.198Z,0
2023-04-28T00:30:44.852Z,0
2023-04-28T00:40:48.149Z,0
2023-04-28T01:00:55.315Z,0
2023-04-28T01:10:59.035Z,0
2023-04-28T01:21:02.549Z,0
2023-04-28T01:31:05.922Z,0
2023-04-28T01:41:09.689Z,1
2023-04-28T02:01:16.420Z,0
2023-04-28T02:11:20.354Z,1
2023-04-28T02:21:24.381Z,0
2023-04-28T02:31:27.769Z,3
2023-04-28T02:41:30.949Z,0
2023-04-28T02:51:34.147Z,0
2023-04-28T03:01:37.771Z,0
2023-04-28T03:11:41.238Z,2
2023-04-28T03:21:44.874Z,3
2023-04-28T03:31:48.769Z,1
2023-04-28T03:41:52.587Z,2
2023-04-28T03:51:55.749Z,2
2023-04-28T04:01:59.549Z,0
2023-04-28T04:12:03.499Z,3
2023-04-28T04:22:06.914Z,0
2023-04-28T04:32:10.823Z,1
2023-04-28T04:42:23.771Z,0
2023-04-28T04:52:17.986Z,0
2023-04-28T05:02:22.061Z,1
2023-04-28T05:12:25.704Z,0
2023-04-28T05:22:29.226Z,0
2023-04-28T05:32:32.967Z,0
2023-04-28T05:42:36.104Z,1
2023-04-28T05:52:39.362Z,0
2023-04-28T06:02:42.502Z,0
2023-04-28T06:22:49.507Z,0
2023-04-28T07:53:21.375Z,3
2023-04-28T08:13:28.475Z,0
2023-04-28T08:23:31.753Z,3
2023-04-28T08:33:35.076Z,1
2023-04-28T08:43:38.898Z,0
2023-04-28T08:53:59.786Z,3
2023-04-28T10:14:10.919Z,1
2023-04-28T12:04:49.172Z,17
2023-04-28T12:24:57.049Z,7
2023-04-28T13:05:10.475Z,17
2023-04-28T13:15:14.274Z,25
2023-04-28T13:35:21.590Z,5
2023-04-28T13:55:29.341Z,12
2023-04-28T14:05:39.018Z,6
2023-04-28T14:15:37.174Z,0
2023-04-28T14:25:39.325Z,4
2023-04-28T14:35:43.305Z,7
2023-04-28T14:45:47.342Z,0
2023-04-28T14:55:50.582Z,4
2023-04-28T15:05:54.128Z,3
2023-04-28T15:15:57.538Z,12
2023-04-28T15:26:01.347Z,16
2023-04-28T15:36:05.152Z,39
2023-04-28T15:46:08.977Z,18
2023-04-28T15:56:11.949Z,58
2023-04-28T16:06:15.949Z,52
2023-04-28T16:16:19.760Z,18
2023-04-28T16:26:22.894Z,36
2023-04-28T16:36:26.986Z,47
2023-04-28T16:46:30.097Z,6
2023-04-28T16:56:33.978Z,19
2023-04-28T17:06:37.344Z,12
2023-04-28T17:16:40.447Z,17
2023-04-28T17:26:44.249Z,30
2023-04-28T17:36:47.842Z,31
2023-04-28T17:46:51.185Z,32
2023-04-28T18:06:58.948Z,3
2023-04-28T18:17:02.098Z,9
2023-04-28T18:27:06.053Z,7
2023-04-28T18:37:09.567Z,7
2023-04-28T18:47:13.397Z,8
2023-04-28T18:57:16.875Z,3
2023-04-28T19:07:20.685Z,3
2023-04-28T19:17:24.209Z,2
2023-04-28T19:27:28.018Z,4
2023-04-28T19:37:31.406Z,0
2023-04-28T19:47:35.174Z,0
2023-04-28T19:57:38.218Z,2
2023-04-28T20:07:41.873Z,3
2023-04-28T20:17:45.628Z,5
2023-04-28T20:37:52.454Z,7
2023-04-28T20:47:56.576Z,5
2023-04-28T20:57:59.631Z,15
2023-04-28T21:08:03.056Z,2
2023-04-28T21:18:06.837Z,7
2023-04-28T21:28:10.642Z,11
2023-04-28T21:38:13.893Z,9
2023-04-28T21:48:17.608Z,5
2023-04-28T21:58:21.253Z,11
2023-04-28T22:08:25.183Z,11
2023-04-28T22:18:28.550Z,2
2023-04-28T22:28:31.759Z,4
2023-04-28T22:38:35.312Z,7
2023-04-28T22:48:38.748Z,14
2023-04-28T22:58:41.841Z,8
2023-04-28T22:58:49.989Z,9
2023-04-28T23:08:53.590Z,6
2023-04-28T23:18:57.081Z,4
2023-04-28T23:29:00.175Z,5
2023-04-28T23:39:03.391Z,10
2023-04-28T23:49:06.859Z,13
2023-04-28T23:59:09.975Z,7
